Date,TemperatureHighF,TemperatureAvgF,TemperatureLowF,DewpointHighF,DewpointAvgF,DewpointLowF,HumidityHigh,HumidityAvg,HumidityLow,PressureMaxIn,PressureMinIn,WindSpeedMaxMPH,WindSpeedAvgMPH,GustSpeedMaxMPH,PrecipitationSumIn
2013-1-1,49.8,47.2,43.0,49.0,43.4,33.6,97,87,63,30.19,30.03,1,0,2,0.24
2013-1-2,49.6,44.8,41.7,48.8,39.0,37.2,97,80,71,30.28,30.02,4,0,6,0.14
2013-1-3,46.9,41.4,31.1,38.4,35.4,27.9,89,80,61,30.35,30.23,3,0,4,0.00
2013-1-4,51.4,38.1,26.2,31.7,23.8,17.4,91,61,26,30.41,30.28,4,0,6,0.00
2013-1-5,50.5,37.4,26.6,32.8,24.8,20.0,82,62,32,30.49,30.35,2,0,4,0.00
2013-1-6,50.2,42.8,35.2,38.7,35.6,31.1,88,76,60,30.35,30.15,2,0,4,0.01
2013-1-7,47.7,33.6,28.9,36.4,29.4,26.4,93,85,53,30.50,30.27,4,0,6,0.00
2013-1-10,63.5,52.6,42.8,47.1,41.1,32.2,90,66,48,30.61,30.43,1,0,2,0.15
2013-1-11,51.4,49.3,45.5,48.9,47.5,43.3,96,94,91,30.42,30.23,0,0,2,0.05
2013-1-12,70.3,57.9,50.0,61.4,55.0,48.9,97,91,73,30.26,30.17,0,0,2,0.00
2013-1-13,75.2,62.7,51.3,61.0,56.2,50.2,96,81,56,30.23,30.13,2,0,3,0.00
2013-1-14,70.7,63.3,51.4,61.4,57.6,47.4,90,82,70,30.24,30.15,1,0,2,0.00
2013-1-15,48.4,47.2,46.6,45.4,44.8,44.0,95,91,87,30.31,30.14,1,0,2,0.01
2013-1-16,50.5,48.1,44.8,49.2,46.6,43.2,96,95,94,30.14,30.06,3,0,4,0.13
2013-1-17,51.1,50.8,50.5,49.8,49.4,49.2,96,95,95,30.07,30.05,1,0,2,0.07
2013-1-24,40.8,33.8,28.4,23.5,11.0,-3.3,72,42,19,30.56,30.04,2,1,4,0.00
2013-1-25,28.0,25.8,23.0,22.4,8.9,-4.4,79,52,25,30.58,30.21,0,0,1,0.02
2013-1-26,41.5,31.6,27.1,31.7,26.1,21.5,89,80,63,30.46,30.17,0,0,2,0.04
2013-1-27,41.2,33.3,25.5,27.2,25.1,21.4,90,73,54,30.65,30.50,1,0,2,0.05
2013-1-28,52.0,43.9,34.0,43.8,35.9,26.4,84,74,62,30.54,30.33,2,0,4,0.07
2013-1-29,72.9,57.4,44.4,55.7,49.8,42.0,91,77,55,30.29,30.11,2,0,3,0.00
2013-1-30,71.2,69.4,62.4,62.7,60.7,58.9,91,74,67,30.07,29.44,8,3,21,0.25
2013-1-31,63.7,56.0,52.3,60.4,51.5,46.0,90,85,79,29.58,29.52,5,2,11,0.08
2013-2-8,58.1,48.0,40.5,45.3,39.0,26.9,94,72,52,30.15,29.90,4,1,9,0.43
2013-2-9,53.6,39.9,28.6,29.3,21.9,11.5,87,54,19,30.44,30.13,4,0,8,0.00
2013-2-10,54.5,40.6,26.4,42.0,23.6,14.6,91,56,21,30.57,30.28,4,0,6,0.04
2013-2-11,63.7,56.9,44.4,59.7,53.9,41.9,99,90,81,30.29,29.99,4,0,9,0.06
2013-2-12,64.0,53.4,45.5,53.8,36.7,20.6,97,59,21,30.17,29.97,4,0,7,0.00
2013-2-13,49.3,46.6,42.4,47.2,44.1,37.7,97,91,66,30.04,29.70,3,0,7,0.06
2013-2-14,42.3,39.5,37.0,37.8,35.7,32.4,89,86,83,29.98,29.92,1,0,2,0.00
2013-2-16,34.9,33.7,31.8,32.3,31.2,25.1,94,91,77,30.00,29.91,4,0,7,0.25
2013-2-17,39.6,30.9,24.4,25.1,11.8,-1.2,76,49,20,30.36,30.00,6,1,12,0.00
2013-2-18,53.1,36.1,19.4,27.0,16.9,10.5,80,51,20,30.49,30.33,4,0,7,0.02
2013-2-19,52.5,43.6,34.0,50.3,38.3,24.5,95,82,60,30.34,29.95,4,0,8,0.14
2013-2-20,54.7,40.8,29.1,34.3,21.7,9.4,93,55,18,30.21,30.05,4,0,8,0.01
2013-2-21,57.9,41.7,26.4,26.1,17.6,10.5,75,42,18,30.33,30.18,4,0,6,0.00
2013-2-22,44.2,37.2,33.6,34.9,31.7,21.9,92,82,41,30.43,30.20,2,0,3,0.43
2013-2-23,44.1,40.4,36.7,43.3,39.5,34.6,99,97,92,30.20,29.91,3,0,4,0.60
2013-2-24,66.2,49.0,37.6,45.2,38.6,22.3,99,74,23,30.11,29.87,4,0,6,0.06
2013-2-25,44.2,38.7,34.7,33.7,24.6,18.7,85,58,41,30.31,30.11,4,0,8,0.00
2013-2-26,58.3,45.6,36.5,58.0,42.0,25.2,99,88,59,30.22,29.63,5,0,8,0.70
2013-2-27,64.4,49.5,40.1,45.1,40.1,34.5,98,74,38,29.88,29.70,4,0,9,0.01
2013-2-28,51.3,41.4,33.3,40.5,31.6,21.6,96,71,32,29.94,29.77,4,0,10,0.00
2013-3-1,54.1,39.5,28.2,32.5,26.8,22.8,87,63,32,30.01,29.91,4,0,6,0.00
2013-3-2,52.2,39.2,28.8,31.8,24.0,16.4,84,57,32,30.01,29.89,6,0,9,0.00
2013-3-3,50.7,36.2,26.2,21.3,16.8,13.1,73,47,25,30.06,29.92,4,0,7,0.00
2013-3-4,55.9,36.4,23.7,21.5,14.8,5.2,70,45,18,30.20,30.06,5,0,8,0.00
2013-3-5,50.9,42.6,33.1,45.1,34.3,21.5,97,74,41,30.17,29.64,3,0,4,0.27
2013-3-6,49.5,43.9,38.5,47.8,32.3,23.5,97,66,42,30.11,29.59,8,1,17,0.01
2013-3-7,56.5,43.0,31.1,29.8,26.4,23.0,82,54,32,30.32,30.11,5,1,8,0.00
2013-3-8,60.3,44.7,28.8,27.7,22.4,15.2,82,46,20,30.37,30.22,7,1,11,0.00
2013-3-9,67.5,45.4,30.2,34.8,26.8,19.1,79,54,17,30.42,30.29,4,0,6,0.00
2013-3-10,74.3,50.5,32.0,37.8,27.2,14.6,93,51,11,30.41,30.25,3,0,6,0.00
2013-3-11,70.9,56.1,39.0,54.0,44.7,30.9,85,67,46,30.31,29.99,5,0,9,0.00
2013-3-12,76.3,62.9,52.2,62.5,54.0,30.9,99,76,43,30.00,29.81,5,1,11,0.32
2013-3-13,62.4,47.8,35.4,36.9,26.3,16.0,89,47,19,30.22,29.99,6,1,8,0.00
2013-3-14,39.6,37.1,35.4,19.5,16.0,13.9,44,42,39,30.25,30.21,4,1,8,0.00
2013-3-18,59.9,51.1,41.7,53.8,44.4,38.7,95,79,60,30.23,29.96,3,1,4,0.00
2013-3-19,45.0,42.0,39.4,43.0,41.0,39.0,99,96,91,30.27,29.95,1,0,2,0.26
2013-3-20,68.7,54.3,41.5,48.7,30.6,9.4,99,53,14,30.09,29.91,2,1,5,0.27
2013-3-21,61.0,45.2,37.6,32.5,20.9,8.2,81,43,17,30.19,29.82,2,1,5,0.00
2013-3-22,56.8,40.2,25.5,17.3,11.0,6.1,65,33,19,30.17,29.86,2,1,4,0.00
2013-3-23,58.5,44.9,36.9,32.7,26.4,18.8,74,51,25,30.14,30.00,0,0,2,0.00
2013-3-24,41.4,39.2,37.4,40.4,38.6,32.6,99,98,82,30.00,29.66,4,1,8,0.52
2013-3-25,51.3,42.0,36.9,40.2,31.9,22.4,99,71,35,29.90,29.64,6,1,10,0.00
2013-3-26,54.7,42.8,32.5,30.8,27.1,23.5,80,55,32,30.19,29.89,4,0,8,0.00
2013-3-27,57.2,42.8,31.1,28.8,22.8,14.7,84,49,21,30.31,30.18,6,1,11,0.00
2013-3-28,62.6,44.0,28.0,31.1,23.2,16.9,88,50,19,30.38,30.22,5,1,9,0.00
2013-3-29,63.5,46.4,29.3,36.1,25.3,18.5,86,51,18,30.42,30.25,4,0,7,0.00
2013-3-30,70.2,53.6,40.5,45.0,36.6,21.7,82,57,21,30.34,30.14,4,0,6,0.00
2013-3-31,70.9,55.7,48.4,61.0,51.0,43.1,99,85,59,30.17,29.87,4,0,8,0.35
2013-4-1,78.4,63.0,54.3,60.4,47.2,34.9,99,65,21,29.96,29.85,4,0,8,0.02
2013-4-2,67.5,50.5,37.8,36.9,29.0,18.5,81,48,16,30.23,30.02,5,0,10,0.00
2013-4-3,67.1,51.5,43.5,35.2,21.7,11.2,69,34,14,30.37,30.19,4,0,8,0.00
2013-4-4,50.4,43.6,40.1,42.2,34.6,23.3,99,73,41,30.43,30.01,4,0,6,0.69
2013-4-5,67.1,50.4,40.3,48.9,44.3,40.0,99,82,48,30.09,29.96,4,0,7,0.01
2013-4-6,69.6,53.0,39.2,44.2,33.5,18.0,99,57,18,30.35,30.09,4,0,6,0.00
2013-4-7,77.0,57.3,37.4,48.7,39.8,34.5,93,57,26,30.37,30.15,4,0,8,0.00
2013-4-8,85.1,66.9,51.1,57.5,52.1,48.1,95,63,34,30.24,30.09,4,0,8,0.00
2013-4-9,88.0,71.6,55.9,61.1,56.7,53.5,96,63,32,30.24,30.10,4,0,10,0.00
2013-4-10,94.1,75.2,61.2,63.0,59.0,55.2,90,61,32,30.19,29.99,4,1,9,0.00
2013-4-11,70.7,68.1,65.5,60.5,58.8,57.7,78,72,70,30.04,30.02,3,0,8,0.00
2013-4-29,76.8,72.7,69.6,67.2,64.3,62.0,84,75,68,30.08,30.03,2,0,4,0.63
2013-6-4,88.0,76.3,68.2,66.0,64.3,62.2,88,68,44,30.13,30.05,2,0,3,0.15
2013-6-5,68.9,68.5,67.8,64.6,64.1,63.5,87,86,85,30.13,30.11,0,0,0,0.00
2013-6-26,70.7,69.9,69.6,69.1,68.5,67.3,97,95,90,30.02,29.97,2,0,3,0.33
2013-6-27,92.7,77.7,68.0,76.3,71.9,67.1,99,84,53,29.98,29.75,4,0,8,0.01
2013-6-28,94.8,79.0,71.4,74.7,72.2,68.1,98,82,47,29.79,29.59,4,0,10,0.59
2013-6-29,86.9,76.0,69.3,76.2,72.1,69.0,99,89,64,29.77,29.65,3,0,5,0.33
2013-6-30,89.8,76.6,71.1,75.7,72.4,69.0,98,88,60,29.92,29.75,3,0,5,0.33
2013-7-1,81.9,75.1,70.5,77.0,72.4,70.0,98,92,77,30.03,29.89,2,0,8,0.30
2013-7-2,75.2,73.8,71.8,73.9,72.5,70.6,98,96,93,30.24,30.02,3,0,6,0.35
2013-7-3,87.6,77.1,73.4,77.8,74.2,23.9,98,91,64,30.29,30.20,2,0,5,2.21
2013-7-4,92.5,79.8,73.4,75.2,72.7,68.0,97,81,48,30.33,30.20,3,0,6,0.01
2013-7-5,93.2,80.9,73.2,74.4,72.7,70.0,95,78,48,30.34,30.18,4,0,6,0.00
2013-7-6,91.0,79.3,73.9,77.5,73.1,71.5,95,82,59,30.32,30.17,3,0,5,0.02
2013-7-7,91.9,80.5,72.1,75.9,72.5,69.1,94,78,54,30.25,30.09,3,0,6,0.01
2013-7-8,92.5,80.1,73.0,76.1,72.9,69.5,92,80,51,30.22,30.12,4,0,8,0.00
2013-7-9,90.7,77.3,72.7,77.7,72.8,69.6,96,87,60,30.21,30.09,4,0,7,0.02
2013-7-10,92.5,79.0,73.4,76.3,73.6,71.3,95,84,55,30.16,29.98,4,0,8,0.00
2013-7-11,76.3,75.7,75.0,73.3,72.5,72.0,92,90,88,30.03,29.98,2,0,3,0.00
2013-8-7,87.3,77.9,70.9,70.9,69.5,66.4,91,77,50,30.09,30.00,0,0,1,0.00
2013-8-8,93.2,81.1,72.5,73.9,71.9,70.0,93,75,47,30.04,29.96,1,0,2,0.00
2013-8-9,92.8,82.2,75.2,75.5,74.1,73.0,93,78,54,30.04,29.95,2,0,5,0.00
2013-8-10,96.6,81.4,73.9,77.2,74.7,72.7,97,82,54,30.07,29.98,1,0,3,0.12
2013-8-11,94.1,82.0,72.7,75.7,74.0,71.8,97,79,54,30.11,29.99,0,0,1,0.01
2013-8-12,96.4,82.5,75.2,75.5,73.7,71.6,95,77,46,30.04,29.93,0,0,1,0.00
2013-8-13,88.2,76.2,72.1,76.5,73.7,70.9,97,92,66,29.93,29.77,1,0,2,0.19
2013-8-14,75.0,74.7,74.1,73.9,73.5,73.0,96,96,96,29.84,29.83,1,0,2,0.00
2013-9-1,72.7,71.7,70.9,71.8,70.9,70.3,98,97,97,29.93,29.91,0,0,0,0.00
2013-9-2,90.1,78.9,70.9,76.1,74.1,70.3,98,86,62,29.97,29.88,0,0,1,1.32
2013-9-3,88.9,79.6,73.4,76.0,73.6,70.9,96,83,61,30.02,29.88,0,0,1,1.32
2013-9-4,87.3,74.8,68.0,71.9,70.9,65.6,95,88,57,30.17,30.04,1,0,2,0.00
2013-9-5,95.2,76.5,67.5,73.1,66.3,58.2,97,74,34,30.19,30.11,3,0,6,0.00
2013-9-6,86.7,72.4,64.8,66.4,62.5,59.5,94,73,44,30.27,30.16,0,0,0,0.00
2013-9-7,90.0,72.4,60.4,66.4,63.1,12.7,96,75,10,30.23,30.06,0,0,0,0.00
2013-9-8,93.9,75.1,63.7,69.7,64.1,59.6,96,72,37,30.09,29.99,0,0,2,0.00
2013-9-9,92.1,75.6,65.5,71.7,67.4,64.0,96,78,44,30.24,30.08,3,0,4,0.00
2013-9-10,95.7,78.4,68.7,73.0,68.9,64.1,95,76,41,30.34,30.21,3,0,4,0.00
2013-9-11,92.7,78.0,68.0,71.5,68.7,65.3,95,75,44,30.31,30.16,2,0,4,0.00
2013-9-12,73.9,72.9,71.8,69.2,68.5,67.9,88,86,84,30.17,30.14,0,0,1,0.00
2013-9-13,85.3,75.3,69.8,70.5,65.7,57.5,98,75,48,29.95,29.84,0,0,0,0.15
2013-9-14,77.2,68.8,61.9,56.5,53.3,51.3,82,59,43,30.21,29.99,0,0,2,0.00
2013-9-15,84.9,75.1,58.1,63.5,60.9,54.6,94,63,42,30.33,30.19,2,0,3,0.00
2013-9-16,90.0,74.7,68.0,74.7,66.0,60.1,98,77,40,30.27,30.10,2,0,4,0.26
2013-9-17,82.8,69.2,61.2,60.6,55.8,51.8,86,64,37,30.40,30.27,3,0,5,0.00
2013-9-18,78.1,63.0,52.0,55.5,52.3,48.0,96,71,36,30.40,30.25,2,0,3,0.00
2013-9-19,80.1,66.0,54.9,63.7,58.6,53.5,96,79,51,30.29,30.17,2,0,4,0.00
2013-9-20,69.8,67.1,64.2,67.5,64.6,60.6,98,92,81,30.18,30.05,3,0,4,0.22
2013-9-21,79.0,70.8,66.2,72.2,68.7,65.6,99,93,75,30.05,29.82,3,0,5,0.38
2013-9-22,79.7,68.3,61.2,67.6,63.3,58.8,99,86,55,29.95,29.79,4,0,6,0.46
2013-9-23,76.3,63.0,54.7,57.7,55.6,52.4,98,79,47,30.14,29.97,2,0,3,0.00
2013-9-24,79.0,64.1,54.7,61.9,57.4,53.7,99,81,50,30.19,30.00,2,0,4,0.00
2013-9-25,75.9,63.6,54.5,63.3,59.2,53.7,99,87,60,30.03,29.93,2,0,4,0.00
2013-9-26,84.0,66.9,59.4,64.6,59.2,53.8,98,79,40,30.09,29.93,2,0,4,0.00
2013-9-27,78.4,64.2,55.2,63.3,57.3,54.2,99,80,53,30.25,30.09,2,0,4,0.00
2013-9-28,75.4,62.1,52.0,59.1,55.1,51.2,99,80,51,30.35,30.22,3,0,4,0.00
2013-9-29,78.3,62.3,52.2,60.0,54.8,51.6,99,79,45,30.25,30.09,3,0,4,0.00
2013-9-30,78.1,61.7,52.0,62.7,55.9,51.4,99,83,47,30.20,30.06,0,0,0,0.00
2013-10-1,86.4,66.2,52.2,64.8,58.4,51.6,99,79,44,30.22,30.06,2,0,4,0.00
2013-10-2,88.7,70.0,57.9,66.6,61.4,57.1,98,78,40,30.21,30.07,3,0,4,0.00
2013-10-3,89.6,70.4,60.3,69.9,63.5,59.1,98,81,43,30.21,30.08,3,0,5,0.00
2013-10-4,89.1,72.4,62.2,70.1,64.8,61.1,96,79,45,30.21,30.07,3,0,4,0.00
2013-10-5,91.8,74.0,62.4,73.1,65.7,61.5,98,78,43,30.19,30.04,3,0,4,0.00
2013-10-6,85.5,74.3,65.5,72.4,68.6,64.0,98,83,56,30.13,29.96,4,0,8,0.00
2013-10-7,74.5,72.0,65.1,73.3,70.4,64.1,99,95,90,30.08,29.91,3,0,5,0.35
2013-10-8,64.9,61.3,59.7,64.1,52.4,47.9,97,73,64,30.30,30.07,3,0,5,0.00
2013-10-9,59.9,59.8,59.7,52.9,52.2,51.2,78,76,73,30.28,30.23,2,0,4,0.00
2013-10-10,61.2,60.8,55.0,60.6,60.2,54.1,99,98,96,30.12,30.03,2,0,3,0.05
2013-10-11,69.4,63.4,59.5,63.7,61.5,59.3,99,94,79,30.07,30.00,2,0,2,0.01
2013-10-12,68.5,65.1,61.3,65.8,63.3,60.5,98,94,85,30.17,30.04,0,0,1,0.00
2013-10-13,68.5,65.3,63.0,65.1,63.6,62.1,97,94,88,30.28,30.16,2,0,3,0.02
2013-10-14,66.2,63.2,58.3,64.0,61.6,57.2,98,94,87,30.33,30.26,2,0,3,0.05
2013-10-15,73.8,63.6,56.1,63.0,59.0,55.7,99,86,60,30.29,30.13,2,0,4,0.01
2013-10-16,69.1,65.7,61.9,64.3,62.7,61.0,97,90,81,30.15,30.04,0,0,0,0.00
2013-10-17,61.7,61.4,61.2,60.9,60.8,60.5,98,98,97,30.06,30.02,0,0,0,0.00